createdAt,value
2018-08-10T00:00:11.547Z,50.38
2018-08-10T00:02:37.532Z,51.40
2018-08-10T00:05:03.486Z,51.28
2018-08-10T00:07:29.463Z,51.30
2018-08-10T00:09:55.420Z,50.97
2018-08-10T00:12:21.391Z,51.74
2018-08-10T00:14:47.346Z,50.92
2018-08-10T00:17:13.310Z,50.98
2018-08-10T00:19:39.298Z,50.51
2018-08-10T00:22:05.269Z,51.69
2018-08-10T00:24:31.239Z,50.86
2018-08-10T00:26:57.196Z,50.55
2018-08-10T00:29:23.156Z,50.70
2018-08-10T00:31:49.117Z,51.40
2018-08-10T00:34:15.081Z,50.98
2018-08-10T00:36:41.039Z,50.71
2018-08-10T00:39:07.026Z,50.45
2018-08-10T00:41:32.977Z,50.99
2018-08-10T00:43:58.984Z,51.37
2018-08-10T00:46:25.035Z,51.45
2018-08-10T00:48:51.000Z,50.34
2018-08-10T00:51:16.966Z,50.09
2018-08-10T00:53:42.952Z,50.59
2018-08-10T00:56:08.903Z,50.65
2018-08-10T00:58:34.881Z,50.46
2018-08-10T01:01:00.840Z,50.00
2018-08-10T01:03:26.810Z,50.35
2018-08-10T01:05:52.763Z,49.05
2018-08-10T01:08:18.729Z,49.69
2018-08-10T01:10:44.735Z,50.62
2018-08-10T01:13:10.701Z,50.27
2018-08-10T01:15:36.666Z,49.87
2018-08-10T01:18:02.629Z,50.18
2018-08-10T01:20:28.612Z,49.50
2018-08-10T01:22:54.566Z,49.78
2018-08-10T01:25:20.514Z,49.12
2018-08-10T01:27:46.472Z,49.43
2018-08-10T01:30:12.445Z,49.60
2018-08-10T01:32:38.395Z,49.83
2018-08-10T01:35:04.359Z,49.11
2018-08-10T01:37:30.327Z,49.11
2018-08-10T01:39:56.296Z,48.49
2018-08-10T01:42:22.239Z,48.39
2018-08-10T01:44:48.196Z,48.72
2018-08-10T01:47:14.146Z,48.60
2018-08-10T01:49:40.103Z,49.24
2018-08-10T01:52:06.082Z,48.07
2018-08-10T01:54:32.053Z,49.32
2018-08-10T01:56:58.012Z,48.43
2018-08-10T01:59:23.956Z,48.54
2018-08-10T02:01:49.940Z,48.53
2018-08-10T02:04:15.891Z,49.11
2018-08-10T02:06:41.840Z,49.27
2018-08-10T02:09:07.831Z,48.98
2018-08-10T02:11:33.802Z,49.28
2018-08-10T02:13:59.764Z,48.43
2018-08-10T02:16:25.712Z,47.68
2018-08-10T02:18:51.689Z,48.29
2018-08-10T02:21:17.651Z,48.92
2018-08-10T02:23:43.627Z,48.20
2018-08-10T02:26:09.602Z,49.59
2018-08-10T02:28:35.583Z,49.12
2018-08-10T02:31:01.540Z,48.15
2018-08-10T02:33:27.536Z,48.78
2018-08-10T02:35:53.499Z,48.65
2018-08-10T02:38:19.541Z,49.49
2018-08-10T02:40:45.617Z,48.82
2018-08-10T02:43:11.571Z,48.98
2018-08-10T02:45:37.529Z,49.15
2018-08-10T02:48:03.581Z,48.40
2018-08-10T02:50:29.610Z,48.07
2018-08-10T02:52:55.563Z,48.40
2018-08-10T02:55:21.511Z,48.06
2018-08-10T02:57:47.467Z,48.90
2018-08-10T03:00:13.415Z,49.26
2018-08-10T03:02:39.364Z,48.26
2018-08-10T03:05:05.316Z,48.88
2018-08-10T03:07:31.268Z,48.89
2018-08-10T03:09:57.280Z,48.34
2018-08-10T03:12:23.265Z,49.33
2018-08-10T03:14:49.223Z,49.25
2018-08-10T03:17:15.184Z,49.42
2018-08-10T03:19:41.170Z,48.47
2018-08-10T03:22:07.232Z,49.74
2018-08-10T03:24:33.114Z,50.08
2018-08-10T03:26:59.085Z,49.10
2018-08-10T03:29:25.163Z,48.77
2018-08-10T03:31:51.129Z,49.12
2018-08-10T03:34:17.078Z,49.97
2018-08-10T03:36:43.037Z,47.78
2018-08-10T03:39:09.004Z,49.12
2018-08-10T03:41:34.956Z,48.44
2018-08-10T03:44:00.927Z,49.25
2018-08-10T03:46:26.912Z,48.78
2018-08-10T03:48:52.883Z,49.73
2018-08-10T03:51:18.831Z,49.12
2018-08-10T03:53:44.783Z,49.66
2018-08-10T03:56:10.784Z,49.54
2018-08-10T03:58:36.732Z,49.43
2018-08-10T04:01:02.688Z,48.95
2018-08-10T04:03:29.185Z,49.58
2018-08-10T04:05:55.202Z,48.78
2018-08-10T04:08:21.176Z,48.66
2018-08-10T04:10:47.144Z,48.47
2018-08-10T04:13:13.117Z,48.91
2018-08-10T04:15:39.077Z,49.11
2018-08-10T04:18:05.127Z,48.43
2018-08-10T04:20:31.083Z,48.80
2018-08-10T04:22:57.045Z,48.63
2018-08-10T04:25:22.996Z,48.82
2018-08-10T04:27:48.946Z,49.43
2018-08-10T04:30:14.892Z,48.83
2018-08-10T04:32:40.848Z,49.94
2018-08-10T04:35:06.808Z,49.37
2018-08-10T04:37:32.781Z,49.24
2018-08-10T04:39:58.744Z,48.77
2018-08-10T04:42:24.702Z,48.70
2018-08-10T04:44:50.656Z,48.72
2018-08-10T04:47:16.638Z,48.62
2018-08-10T04:49:42.591Z,48.54
2018-08-10T04:52:08.542Z,49.03
2018-08-10T04:54:34.509Z,48.44
2018-08-10T04:57:00.468Z,48.67
2018-08-10T04:59:26.504Z,48.90
2018-08-10T05:01:52.463Z,49.04
2018-08-10T05:04:18.431Z,49.23
2018-08-10T05:06:44.386Z,49.02
2018-08-10T05:09:10.359Z,48.54
2018-08-10T05:11:36.303Z,49.33
2018-08-10T05:14:02.281Z,48.49
2018-08-10T05:16:28.251Z,49.58
2018-08-10T05:18:54.199Z,48.86
2018-08-10T05:21:20.172Z,48.65
2018-08-10T05:23:46.146Z,48.32
2018-08-10T05:26:12.104Z,49.60
2018-08-10T05:28:38.135Z,48.60
2018-08-10T05:31:04.107Z,48.67
2018-08-10T05:33:30.071Z,48.52
2018-08-10T05:35:56.037Z,49.27
2018-08-10T05:38:22.008Z,48.50
2018-08-10T05:40:48.080Z,49.09
2018-08-10T05:43:14.035Z,49.38
2018-08-10T05:45:40.009Z,48.52
2018-08-10T05:48:06.038Z,48.82
2018-08-10T05:50:31.917Z,48.77
2018-08-10T05:52:57.876Z,48.99
2018-08-10T05:55:23.843Z,48.73
2018-08-10T05:57:49.798Z,49.18
2018-08-10T06:00:15.764Z,49.88
2018-08-10T06:02:41.740Z,49.37
2018-08-10T06:05:07.704Z,49.45
2018-08-10T06:07:33.667Z,48.46
2018-08-10T06:09:59.702Z,48.60
2018-08-10T06:12:25.668Z,48.31
2018-08-10T06:14:51.638Z,48.51
2018-08-10T06:17:17.601Z,49.34
2018-08-10T06:19:43.592Z,49.95
2018-08-10T06:22:09.529Z,48.93
2018-08-10T06:24:35.539Z,49.25
2018-08-10T06:27:01.504Z,48.68
2018-08-10T06:29:27.463Z,49.64
2018-08-10T06:31:53.464Z,48.99
2018-08-10T06:34:19.474Z,49.01
2018-08-10T06:36:46.112Z,49.34
2018-08-10T06:39:12.071Z,49.21
2018-08-10T06:41:38.063Z,48.99
2018-08-10T06:44:04.075Z,48.79
2018-08-10T06:46:30.148Z,48.77
2018-08-10T06:48:56.171Z,48.08
2018-08-10T06:51:22.246Z,48.85
2018-08-10T06:53:48.244Z,48.48
2018-08-10T06:56:14.275Z,48.48
2018-08-10T06:58:40.212Z,49.22
2018-08-10T07:01:06.347Z,49.02
2018-08-10T07:03:32.247Z,49.17
2018-08-10T07:05:58.220Z,48.91
2018-08-10T07:08:24.226Z,48.95
2018-08-10T07:10:50.248Z,48.90
2018-08-10T07:13:16.313Z,49.45
2018-08-10T07:15:42.200Z,49.48
2018-08-10T07:18:08.183Z,48.71
2018-08-10T07:20:34.143Z,49.10
2018-08-10T07:23:00.139Z,49.22
2018-08-10T07:25:26.135Z,49.61
2018-08-10T07:27:52.250Z,48.95
2018-08-10T07:30:18.204Z,50.04
2018-08-10T07:32:44.166Z,49.59
2018-08-10T07:35:10.123Z,49.08
2018-08-10T07:37:36.723Z,49.17
2018-08-10T07:40:02.675Z,49.86
2018-08-10T07:42:28.643Z,50.34
2018-08-10T07:44:54.623Z,49.15
2018-08-10T07:47:20.586Z,50.26
2018-08-10T07:49:46.543Z,48.83
2018-08-10T07:52:12.525Z,49.32
2018-08-10T07:54:38.462Z,49.69
2018-08-10T07:57:04.483Z,49.13
2018-08-10T07:59:30.477Z,49.70
2018-08-10T08:01:56.445Z,49.58
2018-08-10T08:04:22.398Z,50.69
2018-08-10T08:06:48.374Z,49.93
2018-08-10T08:09:14.439Z,49.97
2018-08-10T08:11:40.479Z,49.36
2018-08-10T08:14:06.457Z,50.41
2018-08-10T08:16:32.407Z,49.82
2018-08-10T08:18:58.379Z,49.55
2018-08-10T08:21:24.331Z,50.49
2018-08-10T08:23:50.287Z,49.78
2018-08-10T08:26:16.249Z,49.40
2018-08-10T08:28:42.249Z,49.42
2018-08-10T08:31:08.196Z,50.42
2018-08-10T08:33:34.220Z,49.27
2018-08-10T08:36:00.187Z,49.63
2018-08-10T08:38:26.195Z,49.21
2018-08-10T08:40:52.190Z,49.32
2018-08-10T08:43:18.139Z,49.23
2018-08-10T08:45:44.343Z,50.21
2018-08-10T08:48:10.156Z,49.72
2018-08-10T08:50:36.195Z,49.43
2018-08-10T08:53:02.260Z,48.75
2018-08-10T08:55:28.246Z,50.38
2018-08-10T08:57:54.199Z,48.49
2018-08-10T09:00:20.181Z,48.96
2018-08-10T09:02:46.150Z,48.95
2018-08-10T09:05:12.113Z,49.90
2018-08-10T09:07:38.160Z,49.72
2018-08-10T09:10:04.075Z,48.96
2018-08-10T09:12:30.005Z,50.51
2018-08-10T09:14:55.967Z,49.05
2018-08-10T09:17:22.007Z,49.36
2018-08-10T09:19:47.936Z,49.85
2018-08-10T09:22:13.941Z,49.57
2018-08-10T09:24:40.024Z,48.93
2018-08-10T09:27:05.983Z,49.46
2018-08-10T09:29:31.976Z,49.53
2018-08-10T09:31:57.949Z,49.70
2018-08-10T09:34:23.992Z,49.41
2018-08-10T09:36:49.911Z,49.08
2018-08-10T09:39:15.929Z,49.07
2018-08-10T09:41:41.889Z,48.87
2018-08-10T09:44:07.926Z,49.38
2018-08-10T09:46:33.881Z,48.67
2018-08-10T09:48:59.867Z,49.25
2018-08-10T09:51:25.824Z,49.79
2018-08-10T09:53:51.779Z,48.75
2018-08-10T09:56:17.770Z,48.96
2018-08-10T09:58:43.748Z,48.78
2018-08-10T10:01:09.757Z,47.75
2018-08-10T10:03:35.795Z,47.84
2018-08-10T10:06:01.751Z,49.71
2018-08-10T10:08:27.711Z,49.18
2018-08-10T10:10:53.743Z,50.34
2018-08-10T10:13:19.694Z,49.10
2018-08-10T10:15:45.649Z,49.11
2018-08-10T10:18:11.656Z,48.82
2018-08-10T10:20:37.618Z,49.31
2018-08-10T10:23:03.594Z,49.42
2018-08-10T10:25:29.556Z,48.71
2018-08-10T10:27:55.515Z,48.71
2018-08-10T10:30:21.464Z,49.85
2018-08-10T10:32:47.454Z,48.28
2018-08-10T10:35:13.432Z,49.35
2018-08-10T10:37:39.408Z,48.85
2018-08-10T10:40:05.440Z,48.73
2018-08-10T10:42:31.406Z,47.57
2018-08-10T10:44:57.396Z,48.11
2018-08-10T10:47:23.381Z,47.81
2018-08-10T10:49:49.370Z,48.47
2018-08-10T10:52:15.316Z,47.74
2018-08-10T10:54:41.289Z,48.58
2018-08-10T10:57:07.273Z,48.80
2018-08-10T10:59:33.242Z,48.37
2018-08-10T11:01:59.219Z,48.79
2018-08-10T11:04:25.188Z,46.91
2018-08-10T11:06:51.179Z,48.16
2018-08-10T11:09:17.134Z,47.44
2018-08-10T11:11:43.167Z,48.07
2018-08-10T11:14:09.156Z,48.50
2018-08-10T11:16:35.133Z,47.66
2018-08-10T11:19:01.090Z,48.51
2018-08-10T11:21:27.090Z,48.01
2018-08-10T11:23:53.127Z,48.25
2018-08-10T11:26:19.089Z,48.33
2018-08-10T11:28:45.060Z,47.06
2018-08-10T11:31:11.043Z,47.82
2018-08-10T11:33:37.016Z,48.36
2018-08-10T11:36:02.992Z,48.45
2018-08-10T11:38:29.051Z,48.25
2018-08-10T11:40:55.020Z,48.09
2018-08-10T11:43:21.022Z,48.43
2018-08-10T11:45:47.043Z,48.03
2018-08-10T11:48:14.200Z,45.78
2018-08-10T11:50:40.187Z,46.76
2018-08-10T11:53:06.171Z,47.23
2018-08-10T11:55:32.168Z,46.69
2018-08-10T11:57:58.279Z,46.43
2018-08-10T12:00:24.335Z,46.30
2018-08-10T12:02:50.355Z,46.84
2018-08-10T12:05:16.346Z,47.04
2018-08-10T12:07:42.320Z,47.74
2018-08-10T12:10:08.375Z,47.12
2018-08-10T12:12:34.412Z,46.02
2018-08-10T12:15:00.329Z,46.72
2018-08-10T12:17:26.341Z,47.04
2018-08-10T12:19:52.333Z,46.85
2018-08-10T12:22:18.376Z,47.37
2018-08-10T12:24:44.377Z,46.99
2018-08-10T12:27:10.315Z,47.09
2018-08-10T12:29:36.331Z,47.59
2018-08-10T12:32:02.304Z,47.11
2018-08-10T12:34:28.286Z,47.58
2018-08-10T12:36:54.256Z,46.84
2018-08-10T12:39:20.214Z,44.18
2018-08-10T12:41:46.163Z,43.38
2018-08-10T12:44:12.147Z,47.03
2018-08-10T12:46:38.183Z,46.85
2018-08-10T12:49:04.089Z,46.42
2018-08-10T12:51:30.070Z,47.03
2018-08-10T12:53:56.025Z,47.19
2018-08-10T12:56:22.003Z,47.16
2018-08-10T12:58:47.971Z,46.61
2018-08-10T13:01:13.943Z,45.87
2018-08-10T13:03:39.917Z,48.06
2018-08-10T13:06:05.892Z,48.06
2018-08-10T13:08:31.951Z,47.30
2018-08-10T13:10:57.904Z,47.22
2018-08-10T13:13:23.898Z,47.93
2018-08-10T13:15:49.923Z,46.83
2018-08-10T13:18:15.917Z,46.70
2018-08-10T13:20:41.891Z,47.56
2018-08-10T13:23:07.865Z,46.95
2018-08-10T13:25:33.816Z,46.24
2018-08-10T13:27:59.756Z,45.62
2018-08-10T13:30:25.747Z,45.73
2018-08-10T13:32:51.705Z,46.98
2018-08-10T13:35:17.694Z,46.60
2018-08-10T13:37:43.640Z,46.98
2018-08-10T13:40:09.623Z,47.59
2018-08-10T13:42:35.588Z,47.37
2018-08-10T13:45:01.547Z,46.20
2018-08-10T13:47:28.341Z,47.02
2018-08-10T13:49:54.315Z,46.66
2018-08-10T13:52:20.271Z,46.25
2018-08-10T13:54:46.236Z,46.20
2018-08-10T13:57:12.227Z,47.31
2018-08-10T13:59:38.195Z,47.17
2018-08-10T14:02:04.151Z,47.68
2018-08-10T14:04:30.187Z,46.45
2018-08-10T14:06:56.143Z,46.46
2018-08-10T14:09:22.114Z,46.54
2018-08-10T14:11:48.095Z,46.19
2018-08-10T14:14:14.083Z,45.21
2018-08-10T14:16:40.059Z,45.78
2018-08-10T14:19:06.028Z,47.41
2018-08-10T14:21:31.991Z,46.10
2018-08-10T14:23:57.966Z,45.91
2018-08-10T14:26:23.948Z,47.38
2018-08-10T14:28:49.941Z,45.62
2018-08-10T14:31:15.939Z,46.13
2018-08-10T14:33:41.909Z,46.82
2018-08-10T14:36:07.864Z,45.85
2018-08-10T14:38:33.820Z,45.45
2018-08-10T14:40:59.831Z,46.35
2018-08-10T14:43:25.825Z,47.57
2018-08-10T14:45:51.776Z,46.13
2018-08-10T14:48:17.742Z,47.11
2018-08-10T14:50:43.739Z,47.14
2018-08-10T14:53:09.744Z,46.32
2018-08-10T14:55:35.691Z,46.81
2018-08-10T14:58:01.643Z,46.47
2018-08-10T15:00:27.604Z,46.55
2018-08-10T15:02:53.585Z,46.68
2018-08-10T15:05:19.544Z,46.22
2018-08-10T15:07:45.516Z,46.05
2018-08-10T15:10:11.545Z,45.61
2018-08-10T15:12:37.700Z,45.53
2018-08-10T15:15:03.588Z,46.81
2018-08-10T15:17:29.553Z,45.91
2018-08-10T15:19:55.549Z,45.87
2018-08-10T15:22:21.589Z,47.02
2018-08-10T15:24:47.553Z,46.46
2018-08-10T15:27:13.507Z,45.95
2018-08-10T15:29:39.573Z,46.45
2018-08-10T15:32:05.540Z,45.91
2018-08-10T15:34:31.515Z,46.18
2018-08-10T15:36:57.508Z,46.13
2018-08-10T15:39:23.468Z,45.49
2018-08-10T15:41:49.444Z,46.03
2018-08-10T15:44:15.400Z,46.16
2018-08-10T15:46:41.351Z,46.67
2018-08-10T15:49:07.411Z,45.24
2018-08-10T15:51:33.451Z,45.78
2018-08-10T15:53:59.509Z,46.23
2018-08-10T15:56:25.472Z,46.29
2018-08-10T15:58:51.504Z,45.55
2018-08-10T16:01:17.470Z,45.82
2018-08-10T16:03:43.425Z,46.01
2018-08-10T16:06:09.400Z,45.62
2018-08-10T16:08:35.399Z,45.77
2018-08-10T16:11:01.354Z,45.74
2018-08-10T16:13:27.383Z,45.86
2018-08-10T16:15:53.343Z,44.92
2018-08-10T16:18:19.335Z,45.43
2018-08-10T16:20:45.292Z,44.81
2018-08-10T16:23:11.280Z,44.88
2018-08-10T16:25:37.252Z,46.02
2018-08-10T16:28:03.216Z,44.31
2018-08-10T16:30:29.152Z,45.34
2018-08-10T16:32:55.124Z,46.07
2018-08-10T16:35:21.120Z,44.49
2018-08-10T16:37:47.110Z,45.56
2018-08-10T16:40:13.064Z,44.65
2018-08-10T16:42:39.046Z,45.74
2018-08-10T16:45:05.039Z,44.81
2018-08-10T16:47:31.016Z,45.45
2018-08-10T16:49:57.045Z,44.75
2018-08-10T16:52:22.995Z,42.14
2018-08-10T16:54:48.950Z,40.55
2018-08-10T16:57:15.037Z,39.86
2018-08-10T16:59:40.912Z,37.49
2018-08-10T17:02:06.908Z,41.67
2018-08-10T17:04:32.903Z,38.11
2018-08-10T17:06:58.874Z,37.43
2018-08-10T17:09:24.952Z,36.46
2018-08-10T17:11:50.936Z,41.39
2018-08-10T17:14:16.888Z,42.39
2018-08-10T17:16:42.872Z,43.37
2018-08-10T17:19:08.832Z,44.31
2018-08-10T17:21:34.792Z,44.87
2018-08-10T17:24:00.768Z,44.34
2018-08-10T17:26:26.742Z,45.32
2018-08-10T17:28:52.721Z,44.06
2018-08-10T17:31:18.644Z,43.92
2018-08-10T17:33:44.599Z,44.45
2018-08-10T17:36:10.555Z,44.54
2018-08-10T17:38:36.503Z,43.49
2018-08-10T17:41:02.469Z,44.08
2018-08-10T17:43:28.428Z,45.34
2018-08-10T17:45:54.414Z,44.47
2018-08-10T17:48:20.408Z,44.23
2018-08-10T17:50:46.351Z,44.88
2018-08-10T17:53:12.315Z,44.38
2018-08-10T17:55:38.268Z,44.20
2018-08-10T17:58:04.232Z,45.60
2018-08-10T18:00:30.208Z,44.79
2018-08-10T18:02:56.208Z,44.42
2018-08-10T18:05:22.201Z,43.68
2018-08-10T18:07:48.192Z,44.38
2018-08-10T18:10:14.156Z,44.31
2018-08-10T18:12:40.134Z,44.72
2018-08-10T18:15:06.113Z,44.68
2018-08-10T18:17:32.080Z,44.11
2018-08-10T18:19:58.036Z,45.08
2018-08-10T18:22:24.071Z,43.90
2018-08-10T18:24:50.059Z,43.96
2018-08-10T18:27:16.057Z,44.98
2018-08-10T18:29:42.080Z,44.79
2018-08-10T18:32:08.111Z,44.92
2018-08-10T18:34:34.068Z,45.32
2018-08-10T18:37:00.045Z,45.08
2018-08-10T18:39:26.021Z,44.92
2018-08-10T18:41:51.975Z,45.15
2018-08-10T18:44:17.942Z,43.85
2018-08-10T18:46:44.074Z,43.55
2018-08-10T18:49:10.034Z,43.51
2018-08-10T18:51:36.001Z,43.55
2018-08-10T18:54:02.047Z,44.06
2018-08-10T18:56:28.125Z,44.07
2018-08-10T18:58:54.088Z,42.10
2018-08-10T19:01:20.057Z,40.09
2018-08-10T19:03:46.018Z,42.03
2018-08-10T19:06:11.983Z,39.99
2018-08-10T19:08:37.934Z,39.00
2018-08-10T19:11:03.876Z,38.17
2018-08-10T19:13:29.832Z,39.00
2018-08-10T19:15:55.796Z,38.50
2018-08-10T19:18:21.763Z,38.77
2018-08-10T19:20:47.719Z,36.34
2018-08-10T19:23:13.680Z,37.93
2018-08-10T19:25:39.646Z,40.05
2018-08-10T19:28:05.616Z,37.93
2018-08-10T19:30:31.687Z,37.42
2018-08-10T19:32:57.560Z,37.71
2018-08-10T19:35:23.541Z,38.33
2018-08-10T19:37:49.484Z,39.69
2018-08-10T19:40:15.480Z,38.21
2018-08-10T19:42:41.503Z,37.42
2018-08-10T19:45:07.467Z,36.98
2018-08-10T19:47:33.419Z,38.52
2018-08-10T19:49:59.372Z,36.86
2018-08-10T19:52:25.362Z,39.00
2018-08-10T19:54:51.327Z,37.32
2018-08-10T19:57:17.369Z,38.89
2018-08-10T19:59:43.336Z,37.36
2018-08-10T20:02:09.343Z,36.28
2018-08-10T20:04:35.327Z,38.56
2018-08-10T20:07:01.271Z,37.96
2018-08-10T20:09:27.232Z,38.19
2018-08-10T20:11:53.184Z,36.90
2018-08-10T20:14:19.167Z,37.48
2018-08-10T20:16:45.165Z,38.53
2018-08-10T20:19:11.125Z,38.66
2018-08-10T20:21:37.097Z,38.58
2018-08-10T20:24:03.086Z,38.19
2018-08-10T20:26:29.040Z,38.71
2018-08-10T20:28:55.010Z,38.07
2018-08-10T20:31:20.973Z,38.03
2018-08-10T20:33:46.940Z,38.23
2018-08-10T20:36:12.919Z,38.17
2018-08-10T20:38:38.878Z,38.55
2018-08-10T20:41:04.834Z,36.28
2018-08-10T20:43:31.023Z,37.74
2018-08-10T20:45:57.085Z,37.51
2018-08-10T20:48:23.042Z,37.70
2018-08-10T20:50:49.009Z,36.98
2018-08-10T20:53:14.965Z,37.00
2018-08-10T20:55:40.938Z,37.90
2018-08-10T20:58:06.991Z,36.87
2018-08-10T21:00:33.013Z,37.15
2018-08-10T21:02:59.027Z,38.34
2018-08-10T21:05:25.061Z,37.63
2018-08-10T21:07:51.018Z,37.36
2018-08-10T21:10:17.040Z,37.38
2018-08-10T21:12:43.022Z,37.67
2018-08-10T21:15:09.084Z,36.24
2018-08-10T21:17:35.078Z,37.50
2018-08-10T21:20:01.021Z,38.29
2018-08-10T21:22:27.002Z,38.07
2018-08-10T21:24:52.958Z,37.61
2018-08-10T21:27:18.922Z,37.21
2018-08-10T21:29:44.880Z,37.37
2018-08-10T21:32:10.868Z,37.85
2018-08-10T21:34:36.829Z,37.23
2018-08-10T21:37:02.826Z,37.26
2018-08-10T21:39:28.852Z,36.72
2018-08-10T21:41:54.888Z,37.32
2018-08-10T21:44:21.725Z,36.52
2018-08-10T21:46:47.768Z,38.53
2018-08-10T21:49:13.736Z,38.58
2018-08-10T21:51:39.708Z,37.61
2018-08-10T21:54:05.663Z,37.94
2018-08-10T21:56:31.624Z,37.58
2018-08-10T21:58:57.607Z,38.35
2018-08-10T22:01:23.566Z,37.19
2018-08-10T22:03:49.513Z,38.25
2018-08-10T22:06:15.467Z,37.37
2018-08-10T22:08:41.508Z,37.35
2018-08-10T22:11:07.628Z,37.48
2018-08-10T22:13:33.593Z,38.12
2018-08-10T22:15:59.584Z,37.65
2018-08-10T22:18:25.534Z,37.34
2018-08-10T22:20:51.507Z,37.34
2018-08-10T22:23:17.480Z,37.75
2018-08-10T22:25:43.512Z,38.80
2018-08-10T22:28:09.543Z,38.03
2018-08-10T22:30:35.508Z,39.24
2018-08-10T22:33:01.484Z,38.62
2018-08-10T22:35:27.443Z,38.78
2018-08-10T22:37:53.401Z,37.83
2018-08-10T22:40:19.380Z,37.92
2018-08-10T22:42:45.401Z,38.42
2018-08-10T22:45:12.776Z,37.47
2018-08-10T22:47:38.767Z,37.18
2018-08-10T22:50:04.761Z,36.13
2018-08-10T22:52:30.830Z,36.22
2018-08-10T22:54:56.885Z,37.70
2018-08-10T22:57:22.909Z,36.58
2018-08-10T22:59:48.942Z,37.40
2018-08-10T23:02:15.024Z,37.81
2018-08-10T23:04:41.104Z,38.01
2018-08-10T23:07:07.130Z,36.82
2018-08-10T23:09:33.155Z,37.61
2018-08-10T23:11:59.412Z,37.31
2018-08-10T23:14:25.527Z,37.05
2018-08-10T23:16:51.560Z,36.39
2018-08-10T23:19:17.515Z,36.79
2018-08-10T23:21:43.486Z,35.96
2018-08-10T23:24:09.452Z,36.67
2018-08-10T23:26:35.459Z,38.72
2018-08-10T23:29:01.421Z,38.61
2018-08-10T23:31:27.380Z,38.60
2018-08-10T23:33:53.357Z,39.08
2018-08-10T23:36:19.324Z,37.83
2018-08-10T23:38:45.279Z,38.19
2018-08-10T23:41:11.223Z,39.41
2018-08-10T23:43:37.199Z,38.42
2018-08-10T23:46:03.175Z,38.41
2018-08-10T23:48:29.143Z,39.63
2018-08-10T23:50:55.115Z,39.71
2018-08-10T23:53:21.095Z,38.93
2018-08-10T23:55:47.054Z,39.12
2018-08-10T23:58:13.191Z,38.93
